createdAt,value
2023-01-21T00:00:16.153Z,45.90
2023-01-21T00:03:17.523Z,45.60
2023-01-21T00:06:19.365Z,46.20
2023-01-21T00:09:21.589Z,45.50
2023-01-21T00:12:22.797Z,45.50
2023-01-21T00:15:24.028Z,45.60
2023-01-21T00:18:25.262Z,45.50
2023-01-21T00:21:27.241Z,45.40
2023-01-21T00:24:28.631Z,45.70
2023-01-21T00:27:29.868Z,45.40
2023-01-21T00:30:31.225Z,45.50
2023-01-21T00:33:33.237Z,45.50
2023-01-21T00:36:34.996Z,45.50
2023-01-21T00:39:36.478Z,45.50
2023-01-21T00:42:37.796Z,45.10
2023-01-21T00:45:39.053Z,45.10
2023-01-21T00:48:41.336Z,45.50
2023-01-21T00:51:43.181Z,45.60
2023-01-21T00:54:44.638Z,45.60
2023-01-21T00:57:45.879Z,45.40
2023-01-21T01:00:47.217Z,45.40
2023-01-21T01:03:49.105Z,45.40
2023-01-21T01:06:50.965Z,45.70
2023-01-21T01:09:52.323Z,45.40
2023-01-21T01:12:53.570Z,45.30
2023-01-21T01:15:56.675Z,45.50
2023-01-21T01:18:57.919Z,45.60
2023-01-21T01:21:59.759Z,45.40
2023-01-21T01:25:01.144Z,45.70
2023-01-21T01:28:02.417Z,45.40
2023-01-21T01:31:04.401Z,45.60
2023-01-21T01:34:05.793Z,45.30
2023-01-21T01:37:07.616Z,45.50
2023-01-21T01:40:10.136Z,45.50
2023-01-21T01:43:14.278Z,45.10
2023-01-21T01:46:15.623Z,45.20
2023-01-21T01:49:18.742Z,45.30
2023-01-21T01:52:21.163Z,45.40
2023-01-21T01:55:22.895Z,45.30
2023-01-21T01:58:24.175Z,45.20
2023-01-21T02:01:25.461Z,45.50
2023-01-21T02:04:29.083Z,45.30
2023-01-21T02:07:38.782Z,45.30
2023-01-21T02:10:40.295Z,45.20
2023-01-21T02:13:43.479Z,45.40
2023-01-21T02:16:59.765Z,45.10
2023-01-21T02:20:16.217Z,45.20
2023-01-21T02:23:22.740Z,45.00
2023-01-21T02:26:37.220Z,45.00
2023-01-21T02:29:51.629Z,45.20
2023-01-21T02:33:08.659Z,46.20
2023-01-21T02:36:16.161Z,45.10
2023-01-21T02:39:22.900Z,45.00
2023-01-21T02:42:28.167Z,45.00
2023-01-21T02:45:32.404Z,45.20
2023-01-21T02:48:35.043Z,45.00
2023-01-21T02:51:36.797Z,45.20
2023-01-21T02:54:48.744Z,45.20
2023-01-21T02:57:51.609Z,45.10
2023-01-21T03:00:57.129Z,45.10
2023-01-21T03:04:06.347Z,45.40
2023-01-21T03:07:10.764Z,45.10
2023-01-21T03:10:18.259Z,45.20
2023-01-21T03:13:42.483Z,45.40
2023-01-21T03:16:57.933Z,44.90
2023-01-21T03:20:03.060Z,44.80
2023-01-21T03:23:07.775Z,45.10
2023-01-21T03:26:10.481Z,45.40
2023-01-21T03:29:14.810Z,45.00
2023-01-21T03:32:18.166Z,45.20
2023-01-21T03:35:21.019Z,45.40
2023-01-21T03:38:26.190Z,45.00
2023-01-21T03:41:32.745Z,45.00
2023-01-21T03:44:34.331Z,45.00
2023-01-21T03:47:36.787Z,45.10
2023-01-21T03:50:40.008Z,45.00
2023-01-21T03:53:42.082Z,44.90
2023-01-21T03:56:43.337Z,45.10
2023-01-21T03:59:44.749Z,45.00
2023-01-21T04:02:46.082Z,44.90
2023-01-21T04:05:47.376Z,45.40
2023-01-21T04:08:49.188Z,45.00
2023-01-21T04:11:50.418Z,45.30
2023-01-21T04:14:51.640Z,45.30
2023-01-21T04:17:52.839Z,45.10
2023-01-21T04:20:54.234Z,45.10
2023-01-21T04:23:56.096Z,45.20
2023-01-21T04:26:57.328Z,45.00
2023-01-21T04:29:58.697Z,45.10
2023-01-21T04:33:00.043Z,45.10
2023-01-21T04:36:01.281Z,45.20
2023-01-21T04:39:03.153Z,44.90
2023-01-21T04:42:04.491Z,44.90
2023-01-21T04:45:06.798Z,45.30
2023-01-21T04:48:08.000Z,45.00
2023-01-21T04:51:09.353Z,45.10
2023-01-21T04:54:12.278Z,44.90
2023-01-21T04:57:13.575Z,44.90
2023-01-21T05:00:15.840Z,45.00
2023-01-21T05:03:17.430Z,44.80
2023-01-21T05:06:19.068Z,45.50
2023-01-21T05:09:20.881Z,45.00
2023-01-21T05:12:22.189Z,44.90
2023-01-21T05:15:23.399Z,45.10
2023-01-21T05:18:24.703Z,45.20
2023-01-21T05:21:25.941Z,45.10
2023-01-21T05:24:27.815Z,45.00
2023-01-21T05:27:29.060Z,44.90
2023-01-21T05:30:30.500Z,45.00
2023-01-21T05:33:32.290Z,45.10
2023-01-21T05:36:33.538Z,45.10
2023-01-21T05:39:35.431Z,44.70
2023-01-21T05:42:36.636Z,45.20
2023-01-21T05:45:37.863Z,45.00
2023-01-21T05:48:39.129Z,44.90
2023-01-21T05:51:40.373Z,44.80
2023-01-21T05:54:59.950Z,45.20
2023-01-21T05:58:02.551Z,45.00
2023-01-21T06:01:04.062Z,45.40
2023-01-21T06:04:05.401Z,45.10
2023-01-21T06:07:06.650Z,44.90
2023-01-21T06:10:08.905Z,44.90
2023-01-21T06:13:10.971Z,44.80
2023-01-21T06:16:12.244Z,44.70
2023-01-21T06:19:13.478Z,44.90
2023-01-21T06:22:14.902Z,44.80
2023-01-21T06:25:16.789Z,45.10
2023-01-21T06:28:18.134Z,44.80
2023-01-21T06:31:19.635Z,44.70
2023-01-21T06:34:20.896Z,44.80
2023-01-21T06:37:22.107Z,45.00
2023-01-21T06:40:24.624Z,45.00
2023-01-21T06:43:25.816Z,45.20
2023-01-21T06:46:27.110Z,45.10
2023-01-21T06:49:28.378Z,44.80
2023-01-21T06:52:29.622Z,44.90
2023-01-21T06:55:31.424Z,44.90
2023-01-21T06:58:32.756Z,44.80
2023-01-21T07:01:34.201Z,44.70
2023-01-21T07:04:35.494Z,44.90
2023-01-21T07:07:36.769Z,45.30
2023-01-21T07:10:38.589Z,44.80
2023-01-21T07:13:39.810Z,45.00
2023-01-21T07:16:41.268Z,44.80
2023-01-21T07:19:42.485Z,44.50
2023-01-21T07:22:43.745Z,44.90
2023-01-21T07:25:45.685Z,44.80
2023-01-21T07:28:47.188Z,45.00
2023-01-21T07:31:48.756Z,44.70
2023-01-21T07:34:50.109Z,45.00
2023-01-21T07:37:51.309Z,44.80
2023-01-21T07:40:53.151Z,44.70
2023-01-21T07:43:54.369Z,44.90
2023-01-21T07:46:55.668Z,44.90
2023-01-21T07:49:56.942Z,45.20
2023-01-21T07:52:58.993Z,44.50
2023-01-21T07:56:03.363Z,45.00
2023-01-21T07:59:04.730Z,44.60
2023-01-21T08:02:07.290Z,45.00
2023-01-21T08:05:09.366Z,44.40
2023-01-21T08:08:10.611Z,44.50
2023-01-21T08:11:12.416Z,44.90
2023-01-21T08:14:13.719Z,44.90
2023-01-21T08:17:14.976Z,44.40
2023-01-21T08:20:16.255Z,44.80
2023-01-21T08:23:17.550Z,44.80
2023-01-21T08:26:19.389Z,45.20
2023-01-21T08:29:20.875Z,44.70
2023-01-21T08:32:22.284Z,44.50
2023-01-21T08:35:23.519Z,44.70
2023-01-21T08:38:24.784Z,45.00
2023-01-21T08:41:27.005Z,44.90
2023-01-21T08:44:28.258Z,45.00
2023-01-21T08:47:29.526Z,44.50
2023-01-21T08:50:30.801Z,44.70
2023-01-21T08:53:32.789Z,44.80
2023-01-21T08:56:35.014Z,44.90
2023-01-21T08:59:36.265Z,44.60
2023-01-21T09:02:37.794Z,44.60
2023-01-21T09:05:39.031Z,44.80
2023-01-21T09:08:41.280Z,44.70
2023-01-21T09:11:43.117Z,44.50
2023-01-21T09:14:44.392Z,44.50
2023-01-21T09:17:45.967Z,44.60
2023-01-21T09:20:47.258Z,44.80
2023-01-21T09:23:48.500Z,44.10
2023-01-21T09:26:50.351Z,44.50
2023-01-21T09:29:51.589Z,44.40
2023-01-21T09:32:53.035Z,44.60
2023-01-21T09:35:54.781Z,44.40
2023-01-21T09:38:56.274Z,44.70
2023-01-21T09:41:58.071Z,44.20
2023-01-21T09:45:00.687Z,45.20
2023-01-21T09:48:02.822Z,44.40
2023-01-21T09:51:06.636Z,44.20
2023-01-21T09:54:14.379Z,44.90
2023-01-21T09:57:22.776Z,44.60
2023-01-21T10:00:29.246Z,44.30
2023-01-21T10:03:36.934Z,44.80
2023-01-21T10:06:43.543Z,44.30
2023-01-21T10:09:49.786Z,44.60
2023-01-21T10:13:01.610Z,44.50
2023-01-21T10:16:07.914Z,44.80
2023-01-21T10:19:12.645Z,44.60
2023-01-21T10:22:16.733Z,44.30
2023-01-21T10:25:19.824Z,44.30
2023-01-21T10:28:23.107Z,44.20
2023-01-21T10:31:25.791Z,44.40
2023-01-21T10:34:29.301Z,44.50
2023-01-21T10:37:35.431Z,44.40
2023-01-21T10:40:43.031Z,44.40
2023-01-21T10:43:48.076Z,44.10
2023-01-21T10:46:53.554Z,44.50
2023-01-21T10:49:57.731Z,44.30
2023-01-21T10:53:01.284Z,44.70
2023-01-21T10:56:17.674Z,44.40
2023-01-21T10:59:21.591Z,44.70
2023-01-21T11:02:25.878Z,44.50
2023-01-21T11:05:29.545Z,45.00
2023-01-21T11:08:30.864Z,44.20
2023-01-21T11:11:33.220Z,44.90
2023-01-21T11:14:34.998Z,44.10
2023-01-21T11:17:37.915Z,44.20
2023-01-21T11:20:40.974Z,44.10
2023-01-21T11:23:51.592Z,44.30
2023-01-21T11:26:54.266Z,44.10
2023-01-21T11:29:56.245Z,44.00
2023-01-21T11:33:06.857Z,44.20
2023-01-21T11:36:09.827Z,44.40
2023-01-21T11:39:13.699Z,44.20
2023-01-21T11:42:16.653Z,43.90
2023-01-21T11:45:26.097Z,44.60
2023-01-21T11:48:27.393Z,44.30
2023-01-21T11:51:28.740Z,44.00
2023-01-21T11:54:36.815Z,44.00
2023-01-21T11:57:39.036Z,43.90
2023-01-21T12:00:44.481Z,44.30
2023-01-21T12:03:48.485Z,44.00
2023-01-21T12:06:53.075Z,44.10
2023-01-21T12:09:59.492Z,44.00
2023-01-21T12:13:07.384Z,44.20
2023-01-21T12:16:17.730Z,43.90
2023-01-21T12:19:25.106Z,43.70
2023-01-21T12:22:32.119Z,43.90
2023-01-21T12:25:40.048Z,44.20
2023-01-21T12:28:50.032Z,43.60
2023-01-21T12:31:55.976Z,43.70
2023-01-21T12:34:59.753Z,44.00
2023-01-21T12:38:04.632Z,44.10
2023-01-21T12:41:10.031Z,43.70
2023-01-21T12:44:17.417Z,43.60
2023-01-21T12:47:23.296Z,43.70
2023-01-21T12:50:29.040Z,44.10
2023-01-21T12:53:35.297Z,43.60
2023-01-21T12:56:38.374Z,43.60
2023-01-21T12:59:43.243Z,43.70
2023-01-21T13:02:48.779Z,44.00
2023-01-21T13:05:53.731Z,43.70
2023-01-21T13:08:56.407Z,43.60
2023-01-21T13:11:59.296Z,43.60
2023-01-21T13:15:02.066Z,43.70
2023-01-21T13:18:07.749Z,43.50
2023-01-21T13:21:13.288Z,43.70
2023-01-21T13:24:15.969Z,43.50
2023-01-21T13:27:19.300Z,43.50
2023-01-21T13:30:25.455Z,43.40
2023-01-21T13:33:32.127Z,43.80
2023-01-21T13:36:40.735Z,43.40
2023-01-21T13:39:43.877Z,43.80
2023-01-21T13:42:52.640Z,43.60
2023-01-21T13:45:59.645Z,43.80
2023-01-21T13:49:13.451Z,43.30
2023-01-21T13:52:17.607Z,43.50
2023-01-21T13:55:25.534Z,43.40
2023-01-21T13:58:32.108Z,43.60
2023-01-21T14:01:38.154Z,43.90
2023-01-21T14:04:43.125Z,43.70
2023-01-21T14:07:45.405Z,43.30
2023-01-21T14:10:50.201Z,42.90
2023-01-21T14:14:02.166Z,43.00
2023-01-21T14:17:11.896Z,43.40
2023-01-21T14:20:28.047Z,43.30
2023-01-21T14:23:42.114Z,43.50
2023-01-21T14:26:51.692Z,43.20
2023-01-21T14:29:54.971Z,43.60
2023-01-21T14:32:57.732Z,43.10
2023-01-21T14:36:03.130Z,43.40
2023-01-21T14:39:12.353Z,43.00
2023-01-21T14:42:16.639Z,43.50
2023-01-21T14:45:19.730Z,43.10
2023-01-21T14:48:28.795Z,43.60
2023-01-21T14:51:30.983Z,43.10
2023-01-21T14:54:32.965Z,43.50
2023-01-21T14:57:36.205Z,43.20
2023-01-21T15:00:37.696Z,43.30
2023-01-21T15:03:47.049Z,42.90
2023-01-21T15:06:49.689Z,43.50
2023-01-21T15:09:53.514Z,43.20
2023-01-21T15:12:57.101Z,43.40
2023-01-21T15:16:03.640Z,43.00
2023-01-21T15:19:18.054Z,43.10
2023-01-21T15:22:20.790Z,42.90
2023-01-21T15:25:28.293Z,43.30
2023-01-21T15:28:39.340Z,42.90
2023-01-21T15:31:42.387Z,43.30
2023-01-21T15:34:44.478Z,42.90
2023-01-21T15:37:46.569Z,43.30
2023-01-21T15:40:51.186Z,42.90
2023-01-21T15:43:58.875Z,43.30
2023-01-21T15:47:04.133Z,42.70
2023-01-21T15:50:10.970Z,43.70
2023-01-21T15:53:24.999Z,42.70
2023-01-21T15:56:35.106Z,43.20
2023-01-21T15:59:48.835Z,42.80
2023-01-21T16:02:54.076Z,43.20
2023-01-21T16:05:59.542Z,42.80
2023-01-21T16:09:04.279Z,42.70
2023-01-21T16:12:12.804Z,42.70
2023-01-21T16:15:18.141Z,43.00
2023-01-21T16:18:25.473Z,42.60
2023-01-21T16:21:28.831Z,43.10
2023-01-21T16:24:31.857Z,42.70
2023-01-21T16:27:34.524Z,43.00
2023-01-21T16:30:35.758Z,42.90
2023-01-21T16:33:37.036Z,43.30
2023-01-21T16:36:39.157Z,42.90
2023-01-21T16:39:40.728Z,43.10
2023-01-21T16:42:43.372Z,42.60
2023-01-21T16:45:49.729Z,43.00
2023-01-21T16:48:52.844Z,42.80
2023-01-21T16:51:56.206Z,42.80
2023-01-21T16:54:57.468Z,42.60
2023-01-21T16:57:59.303Z,43.30
2023-01-21T17:01:05.993Z,42.80
2023-01-21T17:04:08.613Z,43.00
2023-01-21T17:07:12.661Z,42.70
2023-01-21T17:10:18.003Z,43.10
2023-01-21T17:13:21.413Z,42.70
2023-01-21T17:16:25.221Z,43.10
2023-01-21T17:19:29.605Z,42.50
2023-01-21T17:22:34.102Z,43.00
2023-01-21T17:25:36.062Z,42.60
2023-01-21T17:28:39.413Z,43.00
2023-01-21T17:31:41.739Z,42.80
2023-01-21T17:35:01.499Z,42.80
2023-01-21T17:38:04.636Z,42.70
2023-01-21T17:41:07.523Z,43.10
2023-01-21T17:44:15.283Z,42.90
2023-01-21T17:47:21.059Z,42.90
2023-01-21T17:50:23.426Z,42.70
2023-01-21T17:53:25.641Z,42.80
2023-01-21T17:56:38.907Z,42.70
2023-01-21T17:59:40.874Z,42.90
2023-01-21T18:02:42.170Z,42.80
2023-01-21T18:05:43.463Z,43.00
2023-01-21T18:08:44.903Z,42.70
2023-01-21T18:11:46.266Z,43.10
2023-01-21T18:14:48.163Z,42.70
2023-01-21T18:17:52.645Z,42.70
2023-01-21T18:20:53.980Z,42.90
2023-01-21T18:23:55.234Z,43.20
2023-01-21T18:26:57.135Z,42.80
2023-01-21T18:29:59.011Z,42.70
2023-01-21T18:33:00.349Z,42.70
2023-01-21T18:36:01.587Z,43.20
2023-01-21T18:39:03.069Z,42.80
2023-01-21T18:42:04.389Z,42.80
2023-01-21T18:45:08.610Z,42.70
2023-01-21T18:48:10.101Z,42.60
2023-01-21T18:51:12.282Z,42.80
2023-01-21T18:54:14.256Z,42.60
2023-01-21T18:57:17.536Z,42.60
2023-01-21T19:00:21.932Z,42.60
2023-01-21T19:03:23.289Z,42.80
2023-01-21T19:06:25.284Z,43.10
2023-01-21T19:09:26.634Z,42.80
2023-01-21T19:12:27.963Z,42.70
2023-01-21T19:15:30.794Z,43.30
2023-01-21T19:18:32.317Z,43.10
2023-01-21T19:21:33.541Z,42.70
2023-01-21T19:24:35.781Z,42.80
2023-01-21T19:27:39.006Z,42.40
2023-01-21T19:30:44.201Z,43.10
2023-01-21T19:33:46.333Z,42.60
2023-01-21T19:36:47.658Z,42.70
2023-01-21T19:39:48.989Z,42.50
2023-01-21T19:42:51.072Z,42.80
2023-01-21T19:45:52.990Z,42.50
2023-01-21T19:48:54.431Z,42.50
2023-01-21T19:51:55.807Z,42.50
2023-01-21T19:54:57.009Z,42.90
2023-01-21T19:57:59.849Z,42.70
2023-01-21T20:01:02.171Z,42.50
2023-01-21T20:04:03.432Z,42.50
2023-01-21T20:07:04.892Z,43.00
2023-01-21T20:10:12.383Z,42.40
2023-01-21T20:13:14.587Z,42.50
2023-01-21T20:16:17.939Z,42.60
2023-01-21T20:19:20.320Z,42.80
2023-01-21T20:22:21.659Z,42.60
2023-01-21T20:25:23.759Z,42.40
2023-01-21T20:28:25.874Z,42.40
2023-01-21T20:31:28.422Z,42.60
2023-01-21T20:34:31.200Z,42.70
2023-01-21T20:37:33.436Z,42.50
2023-01-21T20:40:34.886Z,42.70
2023-01-21T20:43:37.125Z,42.80
2023-01-21T20:46:39.011Z,42.70
2023-01-21T20:49:40.411Z,42.60
2023-01-21T20:52:41.746Z,42.50
2023-01-21T20:55:44.401Z,42.00
2023-01-21T20:58:47.156Z,42.40
2023-01-21T21:01:50.620Z,42.40
2023-01-21T21:04:52.741Z,42.50
2023-01-21T21:07:54.437Z,42.80
2023-01-21T21:10:55.655Z,42.30
2023-01-21T21:13:57.804Z,42.80
2023-01-21T21:16:59.687Z,42.30
2023-01-21T21:20:01.207Z,42.90
2023-01-21T21:23:03.421Z,42.50
2023-01-21T21:26:10.155Z,42.40
2023-01-21T21:29:12.059Z,42.50
2023-01-21T21:32:13.917Z,42.50
2023-01-21T21:35:23.345Z,42.40
2023-01-21T21:38:25.268Z,42.30
2023-01-21T21:41:38.867Z,42.50
2023-01-21T21:44:41.361Z,42.50
2023-01-21T21:47:57.867Z,42.20
2023-01-21T21:50:59.274Z,42.60
2023-01-21T21:54:00.678Z,42.40
2023-01-21T21:57:01.895Z,42.90
2023-01-21T22:00:03.367Z,42.50
2023-01-21T22:03:06.780Z,42.30
2023-01-21T22:06:08.546Z,42.50
2023-01-21T22:09:09.879Z,42.40
2023-01-21T22:12:11.112Z,42.50
2023-01-21T22:15:12.368Z,42.40
2023-01-21T22:18:14.171Z,42.00
2023-01-21T22:21:16.963Z,42.80
2023-01-21T22:24:18.634Z,42.20
2023-01-21T22:27:19.902Z,42.30
2023-01-21T22:30:21.180Z,42.30
2023-01-21T22:33:22.969Z,42.70
2023-01-21T22:36:25.267Z,42.30
2023-01-21T22:39:26.455Z,42.30
2023-01-21T22:42:27.760Z,42.60
2023-01-21T22:45:28.979Z,42.70
2023-01-21T22:48:31.104Z,42.50
2023-01-21T22:51:32.574Z,42.70
2023-01-21T22:54:33.938Z,42.30
2023-01-21T22:57:35.136Z,42.20
2023-01-21T23:00:37.160Z,42.50
2023-01-21T23:03:39.003Z,42.50
2023-01-21T23:06:40.237Z,42.50
2023-01-21T23:09:41.498Z,42.80
2023-01-21T23:12:42.736Z,42.50
2023-01-21T23:15:44.899Z,42.40
2023-01-21T23:18:46.817Z,42.30
2023-01-21T23:21:48.222Z,42.50
2023-01-21T23:24:49.572Z,42.40
2023-01-21T23:27:50.832Z,42.60
2023-01-21T23:30:52.677Z,42.20
2023-01-21T23:33:55.349Z,42.70
2023-01-21T23:36:56.594Z,42.40
2023-01-21T23:39:57.890Z,42.40
2023-01-21T23:42:59.267Z,42.70
2023-01-21T23:46:00.566Z,42.70
2023-01-21T23:49:02.674Z,42.50
2023-01-21T23:52:05.795Z,42.40
2023-01-21T23:55:08.100Z,42.30
2023-01-21T23:58:09.613Z,42.20
